createdAt,value
2022-11-25T00:02:14.894Z,25.30
2022-11-25T00:04:44.882Z,25.27
2022-11-25T00:07:14.692Z,25.97
2022-11-25T00:09:44.613Z,26.03
2022-11-25T00:12:14.331Z,24.90
2022-11-25T00:14:44.201Z,26.63
2022-11-25T00:17:14.366Z,26.48
2022-11-25T00:19:44.267Z,26.17
2022-11-25T00:22:14.070Z,26.02
2022-11-25T00:24:44.047Z,25.73
2022-11-25T00:27:13.675Z,26.53
2022-11-25T00:29:43.472Z,24.50
2022-11-25T00:32:13.075Z,28.67
2022-11-25T00:34:42.874Z,26.37
2022-11-25T00:37:12.557Z,25.60
2022-11-25T00:39:42.388Z,25.27
2022-11-25T00:42:30.426Z,26.90
2022-11-25T00:45:00.231Z,24.57
2022-11-25T00:47:30.037Z,27.53
2022-11-25T00:50:00.134Z,28.05
2022-11-25T00:52:29.984Z,31.57
2022-11-25T00:54:59.793Z,25.50
2022-11-25T00:57:30.158Z,26.20
2022-11-25T01:00:00.253Z,26.85
2022-11-25T01:02:30.095Z,28.30
2022-11-25T01:04:59.933Z,29.27
2022-11-25T01:07:29.989Z,28.20
2022-11-25T01:09:59.991Z,28.47
2022-11-25T01:12:29.784Z,30.53
2022-11-25T01:14:59.873Z,27.95
2022-11-25T01:17:29.657Z,28.67
2022-11-25T01:19:59.453Z,30.87
2022-11-25T01:22:29.240Z,27.63
2022-11-25T01:24:59.066Z,30.40
2022-11-25T01:27:28.917Z,29.93
2022-11-25T01:29:58.794Z,26.23
2022-11-25T01:32:28.586Z,29.00
2022-11-25T01:34:58.714Z,28.27
2022-11-25T01:37:28.515Z,31.37
2022-11-25T01:39:58.304Z,31.27
2022-11-25T01:42:31.158Z,31.57
2022-11-25T01:45:27.898Z,31.80
2022-11-25T01:47:58.058Z,32.93
2022-11-25T01:50:29.318Z,28.87
2022-11-25T01:52:59.690Z,32.50
2022-11-25T01:55:32.607Z,33.40
2022-11-25T01:58:15.942Z,31.17
2022-11-25T02:00:50.419Z,30.23
2022-11-25T02:03:31.889Z,32.47
2022-11-25T02:06:04.765Z,32.28
2022-11-25T02:08:34.993Z,31.83
2022-11-25T02:11:06.336Z,36.05
2022-11-25T02:13:37.750Z,32.90
2022-11-25T02:16:08.031Z,30.53
2022-11-25T02:18:37.918Z,30.50
2022-11-25T02:21:08.214Z,30.53
2022-11-25T02:23:43.628Z,30.17
2022-11-25T02:26:13.385Z,33.67
2022-11-25T02:28:44.752Z,30.48
2022-11-25T02:31:16.129Z,33.75
2022-11-25T02:33:46.011Z,31.07
2022-11-25T02:36:18.559Z,30.47
2022-11-25T02:38:56.684Z,32.50
2022-11-25T02:41:36.104Z,35.60
2022-11-25T02:44:07.742Z,32.00
2022-11-25T02:46:37.908Z,29.83
2022-11-25T02:49:09.656Z,33.77
2022-11-25T02:51:41.721Z,33.87
2022-11-25T02:54:12.359Z,28.50
2022-11-25T02:56:42.509Z,33.33
2022-11-25T02:59:12.949Z,33.85
2022-11-25T03:01:42.796Z,24.23
2022-11-25T03:04:13.005Z,30.62
2022-11-25T03:06:42.719Z,23.10
2022-11-25T03:09:12.596Z,32.55
2022-11-25T03:12:00.452Z,31.27
2022-11-25T03:14:30.599Z,30.97
2022-11-25T03:17:00.508Z,29.30
2022-11-25T03:19:30.942Z,31.27
2022-11-25T03:22:00.739Z,32.50
2022-11-25T03:24:30.676Z,30.63
2022-11-25T03:27:00.540Z,32.83
2022-11-25T03:29:30.783Z,33.38
2022-11-25T03:32:02.482Z,31.23
2022-11-25T03:34:32.212Z,31.57
2022-11-25T03:37:02.094Z,30.73
2022-11-25T03:39:32.856Z,27.93
2022-11-25T03:42:02.663Z,30.10
2022-11-25T03:44:33.828Z,27.65
2022-11-25T03:47:03.881Z,20.10
2022-11-25T03:49:34.818Z,29.52
2022-11-25T03:52:04.747Z,29.47
2022-11-25T03:54:35.032Z,30.67
2022-11-25T03:57:19.004Z,29.43
2022-11-25T03:59:48.873Z,30.27
2022-11-25T04:02:19.615Z,30.97
2022-11-25T04:04:50.097Z,28.00
2022-11-25T04:07:19.886Z,31.70
2022-11-25T04:09:50.154Z,29.13
2022-11-25T04:12:39.689Z,30.23
2022-11-25T04:15:10.752Z,29.40
2022-11-25T04:17:41.299Z,28.40
2022-11-25T04:20:12.439Z,29.83
2022-11-25T04:22:42.698Z,29.63
2022-11-25T04:25:13.027Z,28.63
2022-11-25T04:27:42.985Z,29.00
2022-11-25T04:30:13.807Z,28.53
2022-11-25T04:32:44.171Z,28.70
2022-11-25T04:35:15.187Z,27.45
2022-11-25T04:37:46.708Z,27.73
2022-11-25T04:40:16.825Z,30.73
2022-11-25T04:42:48.700Z,28.53
2022-11-25T04:45:23.827Z,29.00
2022-11-25T04:47:51.686Z,27.80
2022-11-25T04:50:24.053Z,29.47
2022-11-25T04:52:58.726Z,28.03
2022-11-25T04:55:29.760Z,28.15
2022-11-25T04:58:00.702Z,26.27
2022-11-25T05:03:00.346Z,27.90
2022-11-25T05:05:30.633Z,28.40
2022-11-25T05:08:00.791Z,28.17
2022-11-25T05:10:30.668Z,27.57
2022-11-25T05:13:01.056Z,24.35
2022-11-25T05:15:32.327Z,26.42
2022-11-25T05:18:02.202Z,26.30
2022-11-25T05:23:02.399Z,22.25
2022-11-25T05:25:32.475Z,25.33
2022-11-25T05:28:06.899Z,23.83
2022-11-25T05:30:36.744Z,23.60
2022-11-25T05:33:07.063Z,23.67
2022-11-25T05:35:36.881Z,25.50
2022-11-25T05:38:06.947Z,22.43
2022-11-25T05:40:38.320Z,25.50
2022-11-25T05:45:40.672Z,25.60
2022-11-25T05:48:11.589Z,28.27
2022-11-25T05:50:41.518Z,26.83
2022-11-25T05:53:17.432Z,29.23
2022-11-25T05:55:56.542Z,28.40
2022-11-25T05:58:29.483Z,29.20
2022-11-25T06:01:00.598Z,29.00
2022-11-25T06:03:31.163Z,26.27
2022-11-25T06:06:02.251Z,28.47
2022-11-25T06:08:32.385Z,26.13
2022-11-25T06:11:08.063Z,28.03
2022-11-25T06:13:38.297Z,25.20
2022-11-25T06:16:14.265Z,24.27
2022-11-25T06:18:46.391Z,26.17
2022-11-25T06:21:16.580Z,26.70
2022-11-25T06:23:47.119Z,23.00
2022-11-25T06:26:21.164Z,23.85
2022-11-25T06:28:54.683Z,25.70
2022-11-25T06:31:26.996Z,26.10
2022-11-25T06:33:58.356Z,21.90
2022-11-25T06:36:28.518Z,24.25
2022-11-25T06:38:58.338Z,23.97
2022-11-25T06:41:28.153Z,28.07
2022-11-25T06:43:57.993Z,27.23
2022-11-25T06:46:27.931Z,28.00
2022-11-25T06:49:02.455Z,28.77
2022-11-25T06:51:32.420Z,28.63
2022-11-25T06:54:02.494Z,28.85
2022-11-25T06:56:32.303Z,26.50
2022-11-25T06:59:02.752Z,28.43
2022-11-25T07:01:32.399Z,26.33
2022-11-25T07:04:05.250Z,28.37
2022-11-25T07:06:35.102Z,27.80
2022-11-25T07:09:07.012Z,29.15
2022-11-25T07:11:40.358Z,27.80
2022-11-25T07:14:12.950Z,28.13
2022-11-25T07:16:44.707Z,31.50
2022-11-25T07:19:17.137Z,31.60
2022-11-25T07:21:47.523Z,30.07
2022-11-25T07:24:18.479Z,33.50
2022-11-25T07:26:48.282Z,28.70
2022-11-25T07:31:49.721Z,29.97
2022-11-25T07:34:21.667Z,32.97
2022-11-25T07:36:52.323Z,32.73
2022-11-25T07:39:24.351Z,27.87
2022-11-25T07:41:55.838Z,32.27
2022-11-25T07:44:25.347Z,30.80
2022-11-25T07:46:56.862Z,33.57
2022-11-25T07:49:26.732Z,32.00
2022-11-25T07:52:04.069Z,31.13
2022-11-25T07:54:34.175Z,32.60
2022-11-25T07:57:03.995Z,28.17
2022-11-25T07:59:34.130Z,31.57
2022-11-25T08:02:04.127Z,30.90
2022-11-25T08:04:34.025Z,30.93
2022-11-25T08:07:04.118Z,30.90
2022-11-25T08:09:34.414Z,30.57
2022-11-25T08:12:04.533Z,31.70
2022-11-25T08:14:35.358Z,30.93
2022-11-25T08:17:06.336Z,29.36
2022-11-25T08:19:36.840Z,32.50
2022-11-25T08:24:35.987Z,27.85
2022-11-25T08:27:06.470Z,26.90
2022-11-25T08:29:36.560Z,26.37
2022-11-25T08:32:11.749Z,19.20
2022-11-25T08:34:39.590Z,26.80
2022-11-25T08:37:10.528Z,24.30
2022-11-25T08:39:56.287Z,25.53
2022-11-25T08:42:12.288Z,23.55
2022-11-25T08:44:41.933Z,23.23
2022-11-25T08:47:11.751Z,22.73
2022-11-25T08:49:42.129Z,20.43
2022-11-25T08:52:12.297Z,20.87
2022-11-25T08:54:42.334Z,21.33
2022-11-25T08:57:11.893Z,20.87
2022-11-25T08:59:42.380Z,20.50
2022-11-25T09:02:14.455Z,19.43
2022-11-25T09:04:44.429Z,16.63
2022-11-25T09:07:14.543Z,17.60
2022-11-25T09:09:44.244Z,18.50
2022-11-25T09:12:14.115Z,17.42
2022-11-25T09:14:43.937Z,16.37
2022-11-25T09:17:15.556Z,16.50
2022-11-25T09:19:45.357Z,17.47
2022-11-25T09:22:15.175Z,17.60
2022-11-25T09:24:45.438Z,15.10
2022-11-25T09:27:15.270Z,16.82
2022-11-25T09:29:45.126Z,15.17
2022-11-25T09:32:15.072Z,16.73
2022-11-25T09:34:44.857Z,15.80
2022-11-25T09:37:14.611Z,14.93
2022-11-25T09:39:44.417Z,17.03
2022-11-25T09:43:06.019Z,17.10
2022-11-25T09:46:02.680Z,15.03
2022-11-25T09:48:50.794Z,17.30
2022-11-25T09:51:26.270Z,15.93
2022-11-25T09:54:10.901Z,15.57
2022-11-25T09:56:43.501Z,15.63
2022-11-25T09:59:22.162Z,15.17
2022-11-25T10:02:12.965Z,13.97
2022-11-25T10:04:48.330Z,15.97
2022-11-25T10:07:20.892Z,16.27
2022-11-25T10:09:50.977Z,15.87
2022-11-25T10:12:32.257Z,14.53
2022-11-25T10:15:04.864Z,16.10
2022-11-25T10:17:40.437Z,14.53
2022-11-25T10:20:13.297Z,17.20
2022-11-25T10:22:46.507Z,17.67
2022-11-25T10:25:27.746Z,21.23
2022-11-25T10:28:12.919Z,16.37
2022-11-25T10:31:02.437Z,14.57
2022-11-25T10:33:35.596Z,15.70
2022-11-25T10:36:13.134Z,13.75
2022-11-25T10:38:45.576Z,14.65
2022-11-25T10:41:18.126Z,15.17
2022-11-25T10:43:49.060Z,15.40
2022-11-25T10:46:43.413Z,15.58
2022-11-25T10:49:18.383Z,13.13
2022-11-25T10:51:50.138Z,15.07
2022-11-25T10:54:28.341Z,16.37
2022-11-25T10:57:01.188Z,13.90
2022-11-25T10:59:39.999Z,14.50
2022-11-25T11:02:28.068Z,13.87
2022-11-25T11:05:12.930Z,13.10
2022-11-25T11:07:45.605Z,14.93
2022-11-25T11:10:21.451Z,14.70
2022-11-25T11:13:00.423Z,12.33
2022-11-25T11:15:35.787Z,10.83
2022-11-25T11:18:30.688Z,8.97
2022-11-25T11:21:01.557Z,8.97
2022-11-25T11:23:31.504Z,8.75
2022-11-25T11:26:08.511Z,8.60
2022-11-25T11:28:42.861Z,7.93
2022-11-25T11:31:40.623Z,8.08
2022-11-25T11:34:37.175Z,7.45
2022-11-25T11:37:46.951Z,6.43
2022-11-25T11:40:25.578Z,7.33
2022-11-25T11:43:23.884Z,8.63
2022-11-25T11:46:02.588Z,7.13
2022-11-25T11:48:53.646Z,6.80
2022-11-25T11:51:41.301Z,7.47
2022-11-25T11:54:23.417Z,5.62
2022-11-25T11:57:04.829Z,6.93
2022-11-25T11:59:57.015Z,7.90
2022-11-25T12:02:35.683Z,6.17
2022-11-25T12:05:09.517Z,7.22
2022-11-25T12:07:54.398Z,6.10
2022-11-25T12:10:27.123Z,7.03
2022-11-25T12:13:18.268Z,6.43
2022-11-25T12:15:51.128Z,7.03
2022-11-25T12:18:46.657Z,9.03
2022-11-25T12:21:41.446Z,8.73
2022-11-25T12:24:22.065Z,7.58
2022-11-25T12:27:20.520Z,7.73
2022-11-25T12:30:08.463Z,7.35
2022-11-25T12:32:57.974Z,6.70
2022-11-25T12:35:30.814Z,8.27
2022-11-25T12:38:06.670Z,7.42
2022-11-25T12:40:45.167Z,6.90
2022-11-25T12:43:43.578Z,6.17
2022-11-25T12:46:19.895Z,7.07
2022-11-25T12:48:50.389Z,7.95
2022-11-25T12:51:41.276Z,6.33
2022-11-25T12:54:47.277Z,5.43
2022-11-25T12:57:41.949Z,5.67
2022-11-25T13:00:43.391Z,6.20
2022-11-25T13:03:24.956Z,6.60
2022-11-25T13:06:26.618Z,7.00
2022-11-25T13:11:54.733Z,6.25
2022-11-25T13:14:50.832Z,7.03
2022-11-25T13:17:21.396Z,7.13
2022-11-25T13:19:51.088Z,6.23
2022-11-25T13:22:29.659Z,7.53
2022-11-25T13:25:00.008Z,6.90
2022-11-25T13:27:36.001Z,6.07
2022-11-25T13:30:08.393Z,6.35
2022-11-25T13:32:40.635Z,7.57
2022-11-25T13:35:34.383Z,8.47
2022-11-25T13:38:09.424Z,6.80
2022-11-25T13:40:40.476Z,7.20
2022-11-25T13:43:22.085Z,7.33
2022-11-25T13:45:52.208Z,6.90
2022-11-25T13:48:25.137Z,6.78
2022-11-25T13:51:14.337Z,7.20
2022-11-25T13:53:56.064Z,6.60
2022-11-25T13:56:29.349Z,6.43
2022-11-25T13:59:20.356Z,6.33
2022-11-25T14:01:53.319Z,6.42
2022-11-25T14:04:41.282Z,5.80
2022-11-25T14:07:19.797Z,6.13
2022-11-25T14:10:05.404Z,5.90
2022-11-25T14:12:59.197Z,7.27
2022-11-25T14:15:34.819Z,6.60
2022-11-25T14:18:10.435Z,5.80
2022-11-25T14:20:48.990Z,6.27
2022-11-25T14:23:41.301Z,6.35
2022-11-25T14:26:41.681Z,6.50
2022-11-25T14:28:57.134Z,5.20
2022-11-25T14:31:30.008Z,6.43
2022-11-25T14:34:02.650Z,6.25
2022-11-25T14:36:38.583Z,5.80
2022-11-25T14:39:11.828Z,5.70
2022-11-25T14:41:44.887Z,5.70
2022-11-25T14:44:21.532Z,6.23
2022-11-25T14:46:54.388Z,7.10
2022-11-25T14:49:46.589Z,5.77
2022-11-25T14:51:55.937Z,7.30
2022-11-25T14:54:25.735Z,7.80
2022-11-25T14:56:55.570Z,7.97
2022-11-25T14:59:26.992Z,7.50
2022-11-25T15:01:57.034Z,6.10
2022-11-25T15:04:27.268Z,6.47
2022-11-25T15:07:02.284Z,7.70
2022-11-25T15:09:35.914Z,7.03
2022-11-25T15:12:10.252Z,5.83
2022-11-25T15:14:43.291Z,5.60
2022-11-25T15:17:30.685Z,7.00
2022-11-25T15:20:06.041Z,6.90
2022-11-25T15:22:36.071Z,6.17
2022-11-25T15:25:11.995Z,4.47
2022-11-25T15:27:47.401Z,5.90
2022-11-25T15:30:22.595Z,6.58
2022-11-25T15:32:53.341Z,6.43
2022-11-25T15:35:25.941Z,6.50
2022-11-25T15:37:56.085Z,6.60
2022-11-25T15:40:42.626Z,6.93
2022-11-25T15:43:30.234Z,6.17
2022-11-25T15:46:07.146Z,6.30
2022-11-25T15:48:44.374Z,6.77
2022-11-25T15:51:37.953Z,6.20
2022-11-25T15:54:25.971Z,6.97
2022-11-25T15:56:58.933Z,7.07
2022-11-25T15:59:41.451Z,6.72
2022-11-25T16:02:46.055Z,6.57
2022-11-25T16:05:21.478Z,6.10
2022-11-25T16:07:54.931Z,7.80
2022-11-25T16:10:36.506Z,7.60
2022-11-25T16:13:25.683Z,8.30
2022-11-25T16:16:04.621Z,6.80
2022-11-25T16:18:43.627Z,8.47
2022-11-25T16:21:29.567Z,8.40
2022-11-25T16:24:02.436Z,8.23
2022-11-25T16:26:36.055Z,8.60
2022-11-25T16:29:18.900Z,8.78
2022-11-25T16:31:48.929Z,7.80
2022-11-25T16:34:21.158Z,7.83
2022-11-25T16:36:51.336Z,10.90
2022-11-25T16:39:21.124Z,9.98
2022-11-25T16:41:56.422Z,12.07
2022-11-25T16:44:27.963Z,11.37
2022-11-25T16:46:59.483Z,11.97
2022-11-25T16:49:31.876Z,10.87
2022-11-25T16:52:01.720Z,11.53
2022-11-25T16:54:31.690Z,11.27
2022-11-25T16:57:02.098Z,11.17
2022-11-25T16:59:35.069Z,10.63
2022-11-25T17:02:07.476Z,10.48
2022-11-25T17:04:37.365Z,9.23
2022-11-25T17:09:47.122Z,11.07
2022-11-25T17:12:22.713Z,12.30
2022-11-25T17:14:52.771Z,13.60
2022-11-25T17:17:25.973Z,11.83
2022-11-25T17:19:56.317Z,12.73
2022-11-25T17:22:27.657Z,11.23
2022-11-25T17:24:58.627Z,10.65
2022-11-25T17:27:32.260Z,11.17
2022-11-25T17:30:04.327Z,10.43
2022-11-25T17:32:35.242Z,10.57
2022-11-25T17:35:05.396Z,9.70
2022-11-25T17:37:35.170Z,10.13
2022-11-25T17:40:07.137Z,8.80
2022-11-25T17:42:37.402Z,9.40
2022-11-25T17:45:19.372Z,8.83
2022-11-25T17:47:49.512Z,11.03
2022-11-25T17:50:26.957Z,10.05
2022-11-25T17:52:56.771Z,10.27
2022-11-25T17:55:27.240Z,11.15
2022-11-25T17:57:57.490Z,11.20
2022-11-25T18:00:27.445Z,10.67
2022-11-25T18:02:57.347Z,11.17
2022-11-25T18:05:28.465Z,10.17
2022-11-25T18:07:58.245Z,10.20
2022-11-25T18:10:28.842Z,9.70
2022-11-25T18:12:58.783Z,9.67
2022-11-25T18:15:32.232Z,10.75
2022-11-25T18:18:08.560Z,9.53
2022-11-25T18:20:38.357Z,9.97
2022-11-25T18:23:09.642Z,9.43
2022-11-25T18:25:41.722Z,9.80
2022-11-25T18:28:14.318Z,8.50
2022-11-25T18:30:44.205Z,9.33
2022-11-25T18:33:14.851Z,10.17
2022-11-25T18:35:46.571Z,8.68
2022-11-25T18:40:50.373Z,7.87
2022-11-25T18:43:26.015Z,10.40
2022-11-25T18:45:57.167Z,9.93
2022-11-25T18:48:28.436Z,9.00
2022-11-25T18:50:58.550Z,10.10
2022-11-25T18:53:28.567Z,9.37
2022-11-25T18:55:58.466Z,9.17
2022-11-25T18:58:28.994Z,8.30
2022-11-25T19:01:07.607Z,9.57
2022-11-25T19:03:37.776Z,9.38
2022-11-25T19:06:09.367Z,8.07
2022-11-25T19:08:40.140Z,9.17
2022-11-25T19:11:16.819Z,7.60
2022-11-25T19:13:50.066Z,9.63
2022-11-25T19:16:22.253Z,9.40
2022-11-25T19:18:52.054Z,9.43
2022-11-25T19:21:22.324Z,8.60
2022-11-25T19:23:52.054Z,6.40
2022-11-25T19:26:27.845Z,8.97
2022-11-25T19:29:00.691Z,7.33
2022-11-25T19:31:33.683Z,8.17
2022-11-25T19:34:04.105Z,9.15
2022-11-25T19:36:35.000Z,8.10
2022-11-25T19:39:06.707Z,8.33
2022-11-25T19:41:36.838Z,8.50
2022-11-25T19:44:06.647Z,10.13
2022-11-25T19:47:07.014Z,11.57
2022-11-25T19:49:08.251Z,9.47
2022-11-25T19:51:38.401Z,8.68
2022-11-25T19:54:17.534Z,8.87
2022-11-25T19:56:47.382Z,6.73
2022-11-25T19:59:17.027Z,6.90
2022-11-25T20:01:47.557Z,7.97
2022-11-25T20:04:22.853Z,7.90
2022-11-25T20:06:53.865Z,7.63
2022-11-25T20:09:23.714Z,8.93
2022-11-25T20:11:55.155Z,8.60
2022-11-25T20:14:24.936Z,7.07
2022-11-25T20:16:54.822Z,8.50
2022-11-25T20:19:24.364Z,8.83
2022-11-25T20:21:54.142Z,9.10
2022-11-25T20:24:23.646Z,8.70
2022-11-25T20:26:53.494Z,7.93
2022-11-25T20:29:30.080Z,9.17
2022-11-25T20:31:56.912Z,8.30
2022-11-25T20:34:28.231Z,8.40
2022-11-25T20:36:58.020Z,7.80
2022-11-25T20:39:27.818Z,8.90
2022-11-25T20:41:57.628Z,10.10
2022-11-25T20:44:28.490Z,8.90
2022-11-25T20:49:29.170Z,8.13
2022-11-25T20:51:59.628Z,7.23
2022-11-25T20:54:31.428Z,10.03
2022-11-25T20:57:01.843Z,9.60
2022-11-25T20:59:31.404Z,9.90
2022-11-25T21:02:01.449Z,9.47
2022-11-25T21:04:31.785Z,11.15
2022-11-25T21:07:01.588Z,10.60
2022-11-25T21:09:36.537Z,11.73
2022-11-25T21:12:13.427Z,10.55
2022-11-25T21:14:41.496Z,10.30
2022-11-25T21:17:11.023Z,10.17
2022-11-25T21:19:40.818Z,9.97
2022-11-25T21:22:15.094Z,10.50
2022-11-25T21:24:45.236Z,9.10
2022-11-25T21:27:19.917Z,10.80
2022-11-25T21:29:49.881Z,10.73
2022-11-25T21:32:25.429Z,10.80
2022-11-25T21:34:56.734Z,10.43
2022-11-25T21:37:32.307Z,9.75
2022-11-25T21:40:02.588Z,11.40
2022-11-25T21:42:33.594Z,10.57
2022-11-25T21:45:03.553Z,10.00
2022-11-25T21:47:33.743Z,11.40
2022-11-25T21:50:03.587Z,10.23
2022-11-25T21:52:33.613Z,10.37
2022-11-25T21:55:03.385Z,11.53
2022-11-25T21:57:34.208Z,11.65
2022-11-25T22:00:05.113Z,11.57
2022-11-25T22:02:34.788Z,12.73
2022-11-25T22:05:06.720Z,11.03
2022-11-25T22:07:36.588Z,10.63
2022-11-25T22:10:10.669Z,11.57
2022-11-25T22:12:43.178Z,10.63
2022-11-25T22:15:18.773Z,12.47
2022-11-25T22:17:50.667Z,12.53
2022-11-25T22:20:34.189Z,11.53
2022-11-25T22:23:05.874Z,11.30
2022-11-25T22:25:35.716Z,12.27
2022-11-25T22:28:06.463Z,12.07
2022-11-25T22:30:36.763Z,11.65
2022-11-25T22:33:06.927Z,12.10
2022-11-25T22:35:36.756Z,13.77
2022-11-25T22:38:14.927Z,13.17
2022-11-25T22:40:47.680Z,15.10
2022-11-25T22:43:19.924Z,14.47
2022-11-25T22:45:50.548Z,13.80
2022-11-25T22:48:23.826Z,14.83
2022-11-25T22:50:53.754Z,11.43
2022-11-25T22:53:24.921Z,14.10
2022-11-25T22:55:58.679Z,12.27
2022-11-25T22:58:29.766Z,12.90
2022-11-25T23:00:59.815Z,12.85
2022-11-25T23:03:30.872Z,14.17
2022-11-25T23:06:02.492Z,14.70
2022-11-25T23:08:32.451Z,14.50
2022-11-25T23:11:02.346Z,13.60
2022-11-25T23:13:32.186Z,13.27
2022-11-25T23:16:05.063Z,13.65
2022-11-25T23:18:40.674Z,13.10
2022-11-25T23:21:19.272Z,13.73
2022-11-25T23:23:49.163Z,14.83
2022-11-25T23:26:18.822Z,13.90
2022-11-25T23:28:49.740Z,15.57
2022-11-25T23:31:19.937Z,15.20
2022-11-25T23:33:51.708Z,14.57
2022-11-25T23:36:30.440Z,17.03
2022-11-25T23:39:03.759Z,17.53
2022-11-25T23:41:35.353Z,16.13
2022-11-25T23:44:15.246Z,16.85
2022-11-25T23:46:45.889Z,15.93
2022-11-25T23:49:30.709Z,16.23
2022-11-25T23:52:07.806Z,14.75
2022-11-25T23:54:40.083Z,15.00
2022-11-25T23:57:19.146Z,14.30
2022-11-25T23:59:49.907Z,16.60
